createdAt,value
2022-10-05T00:01:21.463Z,94.32
2022-10-05T00:03:49.731Z,94.59
2022-10-05T00:06:17.346Z,93.98
2022-10-05T00:08:45.041Z,93.48
2022-10-05T00:11:14.623Z,94.05
2022-10-05T00:13:42.490Z,95.46
2022-10-05T00:16:15.983Z,94.07
2022-10-05T00:18:50.116Z,94.53
2022-10-05T00:21:24.041Z,94.67
2022-10-05T00:23:52.199Z,95.63
2022-10-05T00:26:22.993Z,95.29
2022-10-05T00:28:51.395Z,94.93
2022-10-05T00:31:32.899Z,95.34
2022-10-05T00:34:00.462Z,95.60
2022-10-05T00:36:27.991Z,95.73
2022-10-05T00:38:55.636Z,95.71
2022-10-05T00:41:28.976Z,95.50
2022-10-05T00:44:08.474Z,97.33
2022-10-05T00:46:48.590Z,96.25
2022-10-05T00:49:38.206Z,96.12
2022-10-05T00:52:38.633Z,96.28
2022-10-05T00:55:49.084Z,97.41
2022-10-05T00:58:57.758Z,97.48
2022-10-05T01:01:34.498Z,96.82
2022-10-05T01:04:05.143Z,96.87
2022-10-05T01:06:44.809Z,96.99
2022-10-05T01:09:22.935Z,96.91
2022-10-05T01:12:14.234Z,97.10
2022-10-05T01:15:07.964Z,98.09
2022-10-05T01:17:46.285Z,97.25
2022-10-05T01:20:35.503Z,97.33
2022-10-05T01:23:33.601Z,98.95
2022-10-05T01:26:39.907Z,97.60
2022-10-05T01:29:24.957Z,98.01
2022-10-05T01:32:23.484Z,96.86
2022-10-05T01:35:05.668Z,96.73
2022-10-05T01:37:48.054Z,96.17
2022-10-05T01:40:27.719Z,95.36
2022-10-05T01:43:16.606Z,95.95
2022-10-05T01:46:02.420Z,95.73
2022-10-05T01:48:38.931Z,96.62
2022-10-05T01:51:30.824Z,96.60
2022-10-05T01:54:46.342Z,96.58
2022-10-05T01:57:52.367Z,96.23
2022-10-05T02:00:20.808Z,95.90
2022-10-05T02:02:52.839Z,94.87
2022-10-05T02:05:24.668Z,94.22
2022-10-05T02:08:03.412Z,93.52
2022-10-05T02:10:56.153Z,94.55
2022-10-05T02:13:55.960Z,95.75
2022-10-05T02:16:30.668Z,95.62
2022-10-05T02:19:03.897Z,95.70
2022-10-05T02:21:35.103Z,96.17
2022-10-05T02:24:07.229Z,97.20
2022-10-05T02:26:36.502Z,96.07
2022-10-05T02:29:08.997Z,95.74
2022-10-05T02:31:43.264Z,95.49
2022-10-05T02:34:27.441Z,97.17
2022-10-05T02:37:27.875Z,95.85
2022-10-05T02:40:32.884Z,95.49
2022-10-05T02:43:12.600Z,95.78
2022-10-05T02:46:04.870Z,96.91
2022-10-05T02:48:35.652Z,96.17
2022-10-05T02:51:19.148Z,95.97
2022-10-05T02:54:12.085Z,95.65
2022-10-05T02:57:05.314Z,95.10
2022-10-05T02:59:47.899Z,94.57
2022-10-05T03:02:19.629Z,93.81
2022-10-05T03:04:50.036Z,93.75
2022-10-05T03:07:27.370Z,94.17
2022-10-05T03:10:03.660Z,93.38
2022-10-05T03:12:39.395Z,93.83
2022-10-05T03:15:49.171Z,95.29
2022-10-05T03:18:35.525Z,95.60
2022-10-05T03:21:38.626Z,95.85
2022-10-05T03:24:41.072Z,97.48
2022-10-05T03:27:18.905Z,95.23
2022-10-05T03:29:52.281Z,94.81
2022-10-05T03:32:45.675Z,95.60
2022-10-05T03:35:31.934Z,96.10
2022-10-05T03:38:10.482Z,98.92
2022-10-05T03:40:41.629Z,83.49
2022-10-05T03:43:21.127Z,80.01
2022-10-05T03:45:59.266Z,76.93
2022-10-05T03:48:38.324Z,74.36
2022-10-05T03:51:13.694Z,75.68
2022-10-05T03:53:53.114Z,70.01
2022-10-05T03:56:41.934Z,80.36
2022-10-05T03:59:14.595Z,85.01
2022-10-05T04:02:11.612Z,86.94
2022-10-05T04:04:52.543Z,90.53
2022-10-05T04:07:32.124Z,89.46
2022-10-05T04:10:03.405Z,93.67
2022-10-05T04:12:40.172Z,93.06
2022-10-05T04:15:28.641Z,93.00
2022-10-05T04:18:11.518Z,93.46
2022-10-05T04:20:49.407Z,93.36
2022-10-05T04:23:49.735Z,94.15
2022-10-05T04:26:42.609Z,95.80
2022-10-05T04:29:30.359Z,94.63
2022-10-05T04:32:20.176Z,93.87
2022-10-05T04:34:54.366Z,94.62
2022-10-05T04:38:03.949Z,94.37
2022-10-05T04:41:01.794Z,94.79
2022-10-05T04:43:44.630Z,94.24
2022-10-05T04:46:41.406Z,95.17
2022-10-05T04:49:14.362Z,95.06
2022-10-05T04:52:04.134Z,94.97
2022-10-05T04:54:56.237Z,95.36
2022-10-05T04:57:51.427Z,94.93
2022-10-05T05:00:31.480Z,94.76
2022-10-05T05:03:19.847Z,94.50
2022-10-05T05:06:22.369Z,96.21
2022-10-05T05:09:02.397Z,95.77
2022-10-05T05:11:52.027Z,95.64
2022-10-05T05:14:37.610Z,96.18
2022-10-05T05:17:34.329Z,95.24
2022-10-05T05:20:27.767Z,93.64
2022-10-05T05:23:34.456Z,94.39
2022-10-05T05:26:22.049Z,93.68
2022-10-05T05:29:03.984Z,92.55
2022-10-05T05:31:48.423Z,93.30
2022-10-05T05:34:40.387Z,92.85
2022-10-05T05:37:21.226Z,91.88
2022-10-05T05:40:04.021Z,91.36
2022-10-05T05:42:43.016Z,90.96
2022-10-05T05:45:24.406Z,91.08
2022-10-05T05:47:59.372Z,90.32
2022-10-05T05:50:48.907Z,90.67
2022-10-05T05:53:29.857Z,91.09
2022-10-05T05:56:11.198Z,90.43
2022-10-05T05:58:50.918Z,89.18
2022-10-05T06:01:35.471Z,88.53
2022-10-05T06:04:39.230Z,90.09
2022-10-05T06:07:11.478Z,89.70
2022-10-05T06:09:51.502Z,89.65
2022-10-05T06:13:01.487Z,89.63
2022-10-05T06:15:48.940Z,90.14
2022-10-05T06:18:24.356Z,89.98
2022-10-05T06:21:19.802Z,88.67
2022-10-05T06:24:05.036Z,87.63
2022-10-05T06:27:08.607Z,86.13
2022-10-05T06:33:41.033Z,83.08
2022-10-05T06:36:42.072Z,84.28
2022-10-05T06:39:26.927Z,85.58
2022-10-05T06:42:31.984Z,85.37
2022-10-05T06:45:10.744Z,84.34
2022-10-05T06:47:54.013Z,83.88
2022-10-05T06:50:44.177Z,84.31
2022-10-05T06:53:20.387Z,84.21
2022-10-05T06:56:15.299Z,85.02
2022-10-05T06:58:57.331Z,85.49
2022-10-05T07:01:40.548Z,85.85
2022-10-05T07:04:37.362Z,86.38
2022-10-05T07:07:06.431Z,86.75
2022-10-05T07:09:55.904Z,86.32
2022-10-05T07:12:26.195Z,87.02
2022-10-05T07:15:23.645Z,86.75
2022-10-05T07:17:56.861Z,86.75
2022-10-05T07:20:34.140Z,87.44
2022-10-05T07:23:30.000Z,86.58
2022-10-05T07:26:29.999Z,87.20
2022-10-05T07:29:22.288Z,86.52
2022-10-05T07:32:11.440Z,85.85
2022-10-05T07:35:14.330Z,86.11
2022-10-05T07:37:52.121Z,85.01
2022-10-05T07:40:49.600Z,84.52
2022-10-05T07:44:00.616Z,85.03
2022-10-05T07:46:35.278Z,84.67
2022-10-05T07:49:15.438Z,83.50
2022-10-05T07:51:51.033Z,83.22
2022-10-05T07:54:28.734Z,82.57
2022-10-05T07:57:24.384Z,82.29
2022-10-05T08:00:05.764Z,82.86
2022-10-05T08:02:51.516Z,83.09
2022-10-05T08:05:58.908Z,83.23
2022-10-05T08:08:39.704Z,81.59
2022-10-05T08:11:30.402Z,80.99
2022-10-05T08:14:08.185Z,80.74
2022-10-05T08:16:43.685Z,81.01
2022-10-05T08:19:32.594Z,80.30
2022-10-05T08:22:09.973Z,80.80
2022-10-05T08:24:51.476Z,80.20
2022-10-05T08:27:42.102Z,80.83
2022-10-05T08:30:15.506Z,77.98
2022-10-05T08:33:15.406Z,76.80
2022-10-05T08:35:50.247Z,77.67
2022-10-05T08:38:25.364Z,77.51
2022-10-05T08:41:18.058Z,77.75
2022-10-05T08:44:27.154Z,76.18
2022-10-05T08:47:02.290Z,76.60
2022-10-05T08:49:52.694Z,74.87
2022-10-05T08:52:21.188Z,72.60
2022-10-05T08:55:20.255Z,70.05
2022-10-05T08:57:56.702Z,68.50
2022-10-05T09:00:55.758Z,69.01
2022-10-05T09:03:51.375Z,68.20
2022-10-05T09:06:38.721Z,69.66
2022-10-05T09:09:29.849Z,65.48
2022-10-05T09:12:09.748Z,63.34
2022-10-05T09:15:20.956Z,63.10
2022-10-05T09:18:22.933Z,61.58
2022-10-05T09:20:58.890Z,61.06
2022-10-05T09:23:41.204Z,61.92
2022-10-05T09:26:55.780Z,62.83
2022-10-05T09:29:45.159Z,59.25
2022-10-05T09:32:48.332Z,58.06
2022-10-05T09:35:47.482Z,59.26
2022-10-05T09:38:31.009Z,59.79
2022-10-05T09:41:10.914Z,61.49
2022-10-05T09:44:06.240Z,58.19
2022-10-05T09:46:44.504Z,59.21
2022-10-05T09:49:39.914Z,56.53
2022-10-05T09:52:23.421Z,55.15
2022-10-05T09:55:25.802Z,55.78
2022-10-05T09:58:23.664Z,54.19
2022-10-05T10:01:09.599Z,54.23
2022-10-05T10:04:05.552Z,59.52
2022-10-05T10:07:05.809Z,52.10
2022-10-05T10:09:39.262Z,53.01
2022-10-05T10:12:28.226Z,53.31
2022-10-05T10:15:24.214Z,53.47
2022-10-05T10:18:08.632Z,53.26
2022-10-05T10:21:07.015Z,53.18
2022-10-05T10:23:37.360Z,52.86
2022-10-05T10:26:26.397Z,52.42
2022-10-05T10:29:22.892Z,52.61
2022-10-05T10:32:32.570Z,54.69
2022-10-05T10:35:32.330Z,53.26
2022-10-05T10:41:33.078Z,51.00
2022-10-05T10:44:19.470Z,51.91
2022-10-05T10:46:50.077Z,54.07
2022-10-05T10:49:55.373Z,50.39
2022-10-05T10:56:19.166Z,52.17
2022-10-05T10:58:49.536Z,51.50
2022-10-05T11:01:40.844Z,50.72
2022-10-05T11:04:35.841Z,48.48
2022-10-05T11:07:30.917Z,49.21
2022-10-05T11:10:17.180Z,50.46
2022-10-05T11:13:08.283Z,50.15
2022-10-05T11:15:57.649Z,50.97
2022-10-05T11:18:31.319Z,50.90
2022-10-05T11:21:17.459Z,49.95
2022-10-05T11:23:54.063Z,50.93
2022-10-05T11:26:59.219Z,51.28
2022-10-05T11:29:46.341Z,51.84
2022-10-05T11:32:31.111Z,50.71
2022-10-05T11:35:35.974Z,51.14
2022-10-05T11:38:36.295Z,51.28
2022-10-05T11:41:22.878Z,50.19
2022-10-05T11:44:14.904Z,49.42
2022-10-05T11:46:54.608Z,49.12
2022-10-05T11:49:58.179Z,49.54
2022-10-05T11:52:56.572Z,49.72
2022-10-05T11:55:42.225Z,49.44
2022-10-05T11:58:19.467Z,50.32
2022-10-05T12:01:09.761Z,51.26
2022-10-05T12:03:46.375Z,52.52
2022-10-05T12:06:35.042Z,54.95
2022-10-05T12:09:13.891Z,52.13
2022-10-05T12:11:58.094Z,55.25
2022-10-05T12:14:57.067Z,52.91
2022-10-05T12:17:41.262Z,53.53
2022-10-05T12:20:33.435Z,53.41
2022-10-05T12:23:21.903Z,54.22
2022-10-05T12:25:59.075Z,52.92
2022-10-05T12:28:58.933Z,54.76
2022-10-05T12:31:45.246Z,53.32
2022-10-05T12:34:35.832Z,51.76
2022-10-05T12:37:06.695Z,52.95
2022-10-05T12:39:50.956Z,52.01
2022-10-05T12:42:24.436Z,52.75
2022-10-05T12:45:17.731Z,52.87
2022-10-05T12:48:13.050Z,53.50
2022-10-05T12:50:50.077Z,50.98
2022-10-05T12:53:41.434Z,51.06
2022-10-05T12:56:10.826Z,53.42
2022-10-05T12:59:09.997Z,53.68
2022-10-05T13:01:52.539Z,53.17
2022-10-05T13:04:29.262Z,53.79
2022-10-05T13:07:07.369Z,54.43
2022-10-05T13:10:11.983Z,52.57
2022-10-05T13:13:04.411Z,53.55
2022-10-05T13:15:34.913Z,53.69
2022-10-05T13:18:18.249Z,52.05
2022-10-05T13:21:09.058Z,52.77
2022-10-05T13:24:03.545Z,54.23
2022-10-05T13:26:44.411Z,53.84
2022-10-05T13:29:33.735Z,52.54
2022-10-05T13:32:11.060Z,52.69
2022-10-05T13:34:57.213Z,50.23
2022-10-05T13:37:39.853Z,50.82
2022-10-05T13:40:43.901Z,48.92
2022-10-05T13:43:32.331Z,49.13
2022-10-05T13:46:07.235Z,50.53
2022-10-05T13:49:16.291Z,54.00
2022-10-05T13:51:43.698Z,53.00
2022-10-05T13:54:34.292Z,52.86
2022-10-05T13:57:14.385Z,55.15
2022-10-05T13:59:58.274Z,51.85
2022-10-05T14:02:30.450Z,51.38
2022-10-05T14:05:04.229Z,53.64
2022-10-05T14:07:39.198Z,52.81
2022-10-05T14:10:14.408Z,53.32
2022-10-05T14:12:46.473Z,50.65
2022-10-05T14:15:28.940Z,54.16
2022-10-05T14:17:56.954Z,56.95
2022-10-05T14:20:30.114Z,54.14
2022-10-05T14:23:01.910Z,56.35
2022-10-05T14:25:31.061Z,51.01
2022-10-05T14:28:01.218Z,50.61
2022-10-05T14:30:31.007Z,53.26
2022-10-05T14:33:04.525Z,51.58
2022-10-05T14:35:55.167Z,54.03
2022-10-05T14:38:24.366Z,50.63
2022-10-05T14:41:17.145Z,51.41
2022-10-05T14:44:09.275Z,52.38
2022-10-05T14:46:37.682Z,52.33
2022-10-05T14:49:14.251Z,56.05
2022-10-05T14:51:41.788Z,53.93
2022-10-05T14:54:21.254Z,57.04
2022-10-05T14:57:07.582Z,56.59
2022-10-05T14:59:38.012Z,55.40
2022-10-05T15:02:33.017Z,54.25
2022-10-05T15:05:22.025Z,54.05
2022-10-05T15:07:52.248Z,54.34
2022-10-05T15:10:22.362Z,55.69
2022-10-05T15:12:50.284Z,59.92
2022-10-05T15:15:42.415Z,57.28
2022-10-05T15:18:16.095Z,61.56
2022-10-05T15:21:18.296Z,59.82
2022-10-05T15:24:00.783Z,57.58
2022-10-05T15:26:35.064Z,57.66
2022-10-05T15:29:19.054Z,55.59
2022-10-05T15:32:06.217Z,57.17
2022-10-05T15:34:41.294Z,56.94
2022-10-05T15:37:15.339Z,57.20
2022-10-05T15:40:01.245Z,57.45
2022-10-05T15:42:37.721Z,57.14
2022-10-05T15:45:17.296Z,56.86
2022-10-05T15:48:22.181Z,58.37
2022-10-05T15:50:56.947Z,57.75
2022-10-05T15:53:24.268Z,57.69
2022-10-05T15:56:06.418Z,56.84
2022-10-05T15:58:43.062Z,56.48
2022-10-05T16:01:16.078Z,56.09
2022-10-05T16:03:51.548Z,54.78
2022-10-05T16:06:54.265Z,54.45
2022-10-05T16:09:44.726Z,54.39
2022-10-05T16:12:30.168Z,54.43
2022-10-05T16:15:08.475Z,54.12
2022-10-05T16:18:00.666Z,54.13
2022-10-05T16:20:43.262Z,54.27
2022-10-05T16:23:22.378Z,53.90
2022-10-05T16:25:52.679Z,54.42
2022-10-05T16:28:44.617Z,54.77
2022-10-05T16:31:18.752Z,55.95
2022-10-05T16:34:16.134Z,59.01
2022-10-05T16:37:02.280Z,58.46
2022-10-05T16:39:56.418Z,59.35
2022-10-05T16:42:52.768Z,62.34
2022-10-05T16:45:44.650Z,66.87
2022-10-05T16:48:29.965Z,69.80
2022-10-05T16:51:00.138Z,70.32
2022-10-05T16:53:38.197Z,71.43
2022-10-05T16:56:22.849Z,72.75
2022-10-05T16:59:08.897Z,73.87
2022-10-05T17:02:07.417Z,74.15
2022-10-05T17:04:41.989Z,75.01
2022-10-05T17:07:54.158Z,74.93
2022-10-05T17:11:17.215Z,75.17
2022-10-05T17:13:59.938Z,75.37
2022-10-05T17:17:04.758Z,76.51
2022-10-05T17:20:11.080Z,76.65
2022-10-05T17:23:04.884Z,76.45
2022-10-05T17:25:52.908Z,74.97
2022-10-05T17:28:20.359Z,76.06
2022-10-05T17:31:07.706Z,77.03
2022-10-05T17:34:03.902Z,77.40
2022-10-05T17:36:40.385Z,78.14
2022-10-05T17:39:24.222Z,77.91
2022-10-05T17:41:53.780Z,80.17
2022-10-05T17:44:23.225Z,79.31
2022-10-05T17:46:54.265Z,78.92
2022-10-05T17:50:06.059Z,79.28
2022-10-05T17:52:33.642Z,81.62
2022-10-05T17:55:10.990Z,81.01
2022-10-05T17:57:38.300Z,81.79
2022-10-05T18:00:27.293Z,82.92
2022-10-05T18:02:57.731Z,83.19
2022-10-05T18:05:37.027Z,83.20
2022-10-05T18:08:13.901Z,83.25
2022-10-05T18:11:06.454Z,83.56
2022-10-05T18:13:36.931Z,83.21
2022-10-05T18:16:07.146Z,83.01
2022-10-05T18:18:43.817Z,82.50
2022-10-05T18:21:17.698Z,82.86
2022-10-05T18:23:59.845Z,83.36
2022-10-05T18:26:58.491Z,83.45
2022-10-05T18:29:31.825Z,86.50
2022-10-05T18:32:09.259Z,86.45
2022-10-05T18:34:53.737Z,85.59
2022-10-05T18:37:36.614Z,86.30
2022-10-05T18:40:25.573Z,84.94
2022-10-05T18:43:13.004Z,84.78
2022-10-05T18:46:06.994Z,85.70
2022-10-05T18:48:55.605Z,85.98
2022-10-05T18:51:35.013Z,85.93
2022-10-05T18:54:05.240Z,86.88
2022-10-05T18:56:52.547Z,86.93
2022-10-05T18:59:38.607Z,86.98
2022-10-05T19:02:38.518Z,87.69
2022-10-05T19:05:46.507Z,88.05
2022-10-05T19:08:37.222Z,88.97
2022-10-05T19:11:31.453Z,89.41
2022-10-05T19:14:19.378Z,89.07
2022-10-05T19:16:52.842Z,90.64
2022-10-05T19:19:29.317Z,90.76
2022-10-05T19:21:58.277Z,90.76
2022-10-05T19:24:36.767Z,91.53
2022-10-05T19:27:17.423Z,92.25
2022-10-05T19:30:10.666Z,91.26
2022-10-05T19:32:54.263Z,91.04
2022-10-05T19:35:58.326Z,90.83
2022-10-05T19:38:50.742Z,89.83
2022-10-05T19:41:33.267Z,90.37
2022-10-05T19:44:13.028Z,91.91
2022-10-05T19:46:55.324Z,92.14
2022-10-05T19:49:49.360Z,89.82
2022-10-05T19:52:22.805Z,90.02
2022-10-05T19:55:02.295Z,90.84
2022-10-05T19:57:31.443Z,89.80
2022-10-05T19:59:59.481Z,89.79
2022-10-05T20:02:27.312Z,90.64
2022-10-05T20:05:06.898Z,91.00
2022-10-05T20:07:34.962Z,90.39
2022-10-05T20:10:24.447Z,91.32
2022-10-05T20:12:54.913Z,90.34
2022-10-05T20:16:02.498Z,91.35
2022-10-05T20:18:48.167Z,90.84
2022-10-05T20:21:46.724Z,90.67
2022-10-05T20:24:18.450Z,90.90
2022-10-05T20:26:57.705Z,90.48
2022-10-05T20:29:25.445Z,92.13
2022-10-05T20:31:52.894Z,92.96
2022-10-05T20:34:20.513Z,93.12
2022-10-05T20:36:51.664Z,92.51
2022-10-05T20:39:19.258Z,92.98
2022-10-05T20:41:47.188Z,93.58
2022-10-05T20:44:14.703Z,91.89
2022-10-05T20:46:42.152Z,91.77
2022-10-05T20:49:10.125Z,92.65
2022-10-05T20:51:38.881Z,92.67
2022-10-05T20:54:07.605Z,93.57
2022-10-05T20:56:35.284Z,92.63
2022-10-05T20:59:02.674Z,91.72
2022-10-05T21:01:30.113Z,92.08
2022-10-05T21:03:57.958Z,90.60
2022-10-05T21:06:25.553Z,90.76
2022-10-05T21:08:52.825Z,90.25
2022-10-05T21:11:20.776Z,88.10
2022-10-05T21:13:48.022Z,87.67
2022-10-05T21:16:17.716Z,88.25
2022-10-05T21:18:47.604Z,88.29
2022-10-05T21:21:18.395Z,87.46
2022-10-05T21:23:47.353Z,87.91
2022-10-05T21:26:15.332Z,88.35
2022-10-05T21:28:42.981Z,88.83
2022-10-05T21:31:10.642Z,89.02
2022-10-05T21:33:38.022Z,89.45
2022-10-05T21:36:05.498Z,89.41
2022-10-05T21:38:32.778Z,89.75
2022-10-05T21:41:00.052Z,89.81
2022-10-05T21:43:27.601Z,89.89
2022-10-05T21:45:55.589Z,89.83
2022-10-05T21:48:23.816Z,89.58
2022-10-05T21:50:51.222Z,88.93
2022-10-05T21:53:22.783Z,88.58
2022-10-05T21:55:51.882Z,88.75
2022-10-05T21:58:22.282Z,90.73
2022-10-05T22:00:49.641Z,89.55
2022-10-05T22:03:16.943Z,89.71
2022-10-05T22:05:44.466Z,89.60
2022-10-05T22:08:24.963Z,89.73
2022-10-05T22:10:52.628Z,89.05
2022-10-05T22:13:21.420Z,89.41
2022-10-05T22:15:48.736Z,89.97
2022-10-05T22:18:18.060Z,90.49
2022-10-05T22:20:45.993Z,90.99
2022-10-05T22:23:13.287Z,90.44
2022-10-05T22:25:40.960Z,89.23
2022-10-05T22:28:10.893Z,91.89
2022-10-05T22:30:39.006Z,90.15
2022-10-05T22:33:06.320Z,90.79
2022-10-05T22:35:35.187Z,90.77
2022-10-05T22:38:04.023Z,91.22
2022-10-05T22:40:31.577Z,91.29
2022-10-05T22:42:58.904Z,92.10
2022-10-05T22:45:30.329Z,92.61
2022-10-05T22:47:59.657Z,92.51
2022-10-05T22:50:27.232Z,91.45
2022-10-05T22:52:54.616Z,91.55
2022-10-05T22:55:21.939Z,92.65
2022-10-05T22:57:49.235Z,93.37
2022-10-05T23:00:17.522Z,93.63
2022-10-05T23:02:45.100Z,93.33
2022-10-05T23:05:13.124Z,93.27
2022-10-05T23:07:42.644Z,94.40
2022-10-05T23:10:13.646Z,94.26
2022-10-05T23:12:44.863Z,93.84
2022-10-05T23:15:12.166Z,93.74
2022-10-05T23:17:39.642Z,93.60
2022-10-05T23:20:07.940Z,93.71
2022-10-05T23:22:39.118Z,93.67
2022-10-05T23:25:07.701Z,93.84
2022-10-05T23:27:39.403Z,94.61
2022-10-05T23:30:09.135Z,94.49
2022-10-05T23:32:41.564Z,94.36
2022-10-05T23:35:10.996Z,93.77
2022-10-05T23:37:43.904Z,94.20
2022-10-05T23:40:13.440Z,93.90
2022-10-05T23:42:41.482Z,94.12
2022-10-05T23:45:10.407Z,94.29
2022-10-05T23:47:38.872Z,94.37
2022-10-05T23:50:07.620Z,94.40
2022-10-05T23:52:35.451Z,94.56
2022-10-05T23:55:04.796Z,93.69
2022-10-05T23:57:32.115Z,94.78
2022-10-05T23:59:59.461Z,94.88
